EGMD/LYX METAR and TAF weather

Enter ICAO airport designator
Station Type Date Time Source
EGMD METAR 2022/08/16 19:50 UTC NOAA

EGMD 161950Z AUTO 08005KT 9999 NCD 20/18 Q1009


Station Type Date Time Source
EGMD Decoded METAR 2022/08/16 19:50 UTC NOAA

Lydd Airport , United Kingdom (EGMD) 50-57N 000-56E
Aug 16, 2022 - 03:50 PM EDT / 2022.08.16 1950 UTC
Wind: from the E (080 degrees) at 6 MPH (5 KT):0
Visibility: greater than 7 mile(s):0
Temperature: 68 F (20 C)
Dew Point: 64 F (18 C)
Relative Humidity: 88%
Pressure (altimeter): 29.80 in. Hg (1009 hPa)
ob: EGMD 161950Z AUTO 08005KT 9999 NCD 20/18 Q1009
cycle: 20

Station Type Date Time Source
EGMD TAF UTC NOAA

Error!

Example: see airport list